createdAt,value
2023-01-10T00:01:06.413Z,11.30
2023-01-10T00:04:40.715Z,10.70
2023-01-10T00:08:26.968Z,10.40
2023-01-10T00:12:09.784Z,10.30
2023-01-10T00:15:37.311Z,11.20
2023-01-10T00:19:31.520Z,10.30
2023-01-10T00:23:15.189Z,10.80
2023-01-10T00:26:40.510Z,10.70
2023-01-10T00:30:40.072Z,11.60
2023-01-10T00:34:23.610Z,10.50
2023-01-10T00:37:48.141Z,11.70
2023-01-10T00:41:45.711Z,11.40
2023-01-10T00:45:11.923Z,13.00
2023-01-10T00:48:47.740Z,11.70
2023-01-10T00:52:45.670Z,11.70
2023-01-10T00:56:30.098Z,10.70
2023-01-10T00:59:55.447Z,11.10
2023-01-10T01:03:31.172Z,9.60
2023-01-10T01:07:10.117Z,9.70
2023-01-10T01:11:05.740Z,10.30
2023-01-10T01:14:29.168Z,11.40
2023-01-10T01:18:08.832Z,10.00
2023-01-10T01:22:04.354Z,8.40
2023-01-10T01:25:28.240Z,10.50
2023-01-10T01:29:05.964Z,12.70
2023-01-10T01:32:43.703Z,10.70
2023-01-10T01:36:20.841Z,12.70
2023-01-10T01:40:20.008Z,10.90
2023-01-10T01:44:22.963Z,12.40
2023-01-10T01:48:13.062Z,13.00
2023-01-10T01:52:02.412Z,12.80
2023-01-10T01:55:30.351Z,12.70
2023-01-10T01:59:26.842Z,12.90
2023-01-10T02:03:02.660Z,12.30
2023-01-10T02:06:54.158Z,13.80
2023-01-10T02:11:10.221Z,13.10
2023-01-10T02:14:35.714Z,13.00
2023-01-10T02:18:31.922Z,12.20
2023-01-10T02:22:43.057Z,12.30
2023-01-10T02:26:50.203Z,13.80
2023-01-10T02:30:41.735Z,14.30
2023-01-10T02:34:35.524Z,13.90
2023-01-10T02:38:07.748Z,12.00
2023-01-10T02:42:06.555Z,13.30
2023-01-10T02:45:51.953Z,14.20
2023-01-10T02:49:48.042Z,13.90
2023-01-10T02:53:46.323Z,13.60
2023-01-10T02:57:47.706Z,13.10
2023-01-10T03:01:55.916Z,12.70
2023-01-10T03:05:52.376Z,13.50
2023-01-10T03:09:17.264Z,12.40
2023-01-10T03:13:14.600Z,11.50
2023-01-10T03:16:48.259Z,12.00
2023-01-10T03:20:22.018Z,12.00
2023-01-10T03:24:07.363Z,12.20
2023-01-10T03:28:12.117Z,12.70
2023-01-10T03:31:48.299Z,12.50
2023-01-10T03:35:20.593Z,11.80
2023-01-10T03:39:06.230Z,12.00
2023-01-10T03:43:12.158Z,11.80
2023-01-10T03:46:56.910Z,11.90
2023-01-10T03:50:25.130Z,12.20
2023-01-10T03:54:19.699Z,11.40
2023-01-10T03:57:47.601Z,11.00
2023-01-10T04:01:22.183Z,11.00
2023-01-10T04:04:59.359Z,11.70
2023-01-10T04:08:37.921Z,11.70
2023-01-10T04:12:13.704Z,10.60
2023-01-10T04:15:51.616Z,10.80
2023-01-10T04:19:31.307Z,12.40
2023-01-10T04:23:08.235Z,8.10
2023-01-10T04:26:44.834Z,8.20
2023-01-10T04:30:21.809Z,12.00
2023-01-10T04:34:00.915Z,13.50
2023-01-10T04:37:38.038Z,14.20
2023-01-10T04:41:16.093Z,14.70
2023-01-10T04:44:52.591Z,14.00
2023-01-10T04:48:49.177Z,15.30
2023-01-10T04:52:14.652Z,12.30
2023-01-10T04:56:18.156Z,12.10
2023-01-10T05:00:00.805Z,10.60
2023-01-10T05:03:24.408Z,13.20
2023-01-10T05:07:22.711Z,12.30
2023-01-10T05:11:06.639Z,14.70
2023-01-10T05:14:52.246Z,15.10
2023-01-10T05:18:16.572Z,15.60
2023-01-10T05:21:54.317Z,11.80
2023-01-10T05:25:31.499Z,14.80
2023-01-10T05:29:14.721Z,11.30
2023-01-10T05:33:07.153Z,10.70
2023-01-10T05:36:33.319Z,15.40
2023-01-10T05:40:10.578Z,17.00
2023-01-10T05:43:46.269Z,11.30
2023-01-10T05:47:25.469Z,18.10
2023-01-10T05:51:23.189Z,14.90
2023-01-10T05:55:05.964Z,15.20
2023-01-10T05:58:37.244Z,16.10
2023-01-10T06:02:29.795Z,15.70
2023-01-10T06:06:01.361Z,10.90
2023-01-10T06:09:34.601Z,15.60
2023-01-10T06:13:27.945Z,13.30
2023-01-10T06:17:15.065Z,14.50
2023-01-10T06:20:39.396Z,13.40
2023-01-10T06:24:16.736Z,12.90
2023-01-10T06:28:13.928Z,13.10
2023-01-10T06:31:39.014Z,12.30
2023-01-10T06:35:18.667Z,11.70
2023-01-10T06:39:13.679Z,9.70
2023-01-10T06:42:57.503Z,13.10
2023-01-10T06:46:40.726Z,11.10
2023-01-10T06:50:26.751Z,12.00
2023-01-10T06:54:09.305Z,12.90
2023-01-10T06:57:38.739Z,10.80
2023-01-10T07:01:18.755Z,7.10
2023-01-10T07:05:09.416Z,10.60
2023-01-10T07:08:34.921Z,11.00
2023-01-10T07:12:31.189Z,11.40
2023-01-10T07:16:18.357Z,12.00
2023-01-10T07:19:44.580Z,11.90
2023-01-10T07:23:40.313Z,12.10
2023-01-10T07:27:24.143Z,9.60
2023-01-10T07:31:09.830Z,9.10
2023-01-10T07:34:54.875Z,9.90
2023-01-10T07:38:40.453Z,12.10
2023-01-10T07:42:05.597Z,10.10
2023-01-10T07:46:04.853Z,10.60
2023-01-10T07:49:47.545Z,8.50
2023-01-10T07:53:12.830Z,8.50
2023-01-10T07:56:50.913Z,7.30
2023-01-10T08:00:26.995Z,5.90
2023-01-10T08:04:23.126Z,6.90
2023-01-10T08:07:49.204Z,6.60
2023-01-10T08:11:26.303Z,7.40
2023-01-10T08:15:21.528Z,6.60
2023-01-10T08:18:45.676Z,5.30
2023-01-10T08:22:23.259Z,6.70
2023-01-10T08:26:03.208Z,5.10
2023-01-10T08:29:38.686Z,4.90
2023-01-10T08:33:16.197Z,4.50
2023-01-10T08:36:57.948Z,6.10
2023-01-10T08:40:31.824Z,9.20
2023-01-10T08:44:28.445Z,7.20
2023-01-10T08:47:54.560Z,12.30
2023-01-10T08:51:29.875Z,11.40
2023-01-10T08:55:07.922Z,11.60
2023-01-10T09:12:39.839Z,15.50
2023-01-10T09:16:23.370Z,17.20
2023-01-10T09:20:10.867Z,15.70
2023-01-10T09:23:37.307Z,14.90
2023-01-10T09:27:13.907Z,12.00
2023-01-10T09:31:13.137Z,14.40
2023-01-10T09:34:56.058Z,15.70
2023-01-10T09:38:22.392Z,12.90
2023-01-10T09:42:11.244Z,14.20
2023-01-10T09:45:50.094Z,12.30
2023-01-10T09:49:45.406Z,14.60
2023-01-10T09:53:18.746Z,10.50
2023-01-10T09:56:48.014Z,13.20
2023-01-10T10:00:40.401Z,13.70
2023-01-10T10:04:28.109Z,12.60
2023-01-10T10:08:19.217Z,10.50
2023-01-10T10:12:19.594Z,14.00
2023-01-10T10:16:04.332Z,12.40
2023-01-10T10:19:57.927Z,13.30
2023-01-10T10:23:40.266Z,9.60
2023-01-10T10:27:24.664Z,11.70
2023-01-10T10:30:55.514Z,10.50
2023-01-10T10:34:41.651Z,14.20
2023-01-10T10:38:14.527Z,10.70
2023-01-10T10:41:49.422Z,11.40
2023-01-10T10:45:30.520Z,8.60
2023-01-10T10:49:04.710Z,12.10
2023-01-10T10:52:39.655Z,10.00
2023-01-10T10:56:37.286Z,9.30
2023-01-10T11:00:03.682Z,10.10
2023-01-10T11:04:06.491Z,9.40
2023-01-10T11:08:06.116Z,12.20
2023-01-10T11:11:52.196Z,9.40
2023-01-10T11:15:43.533Z,9.20
2023-01-10T11:19:29.633Z,9.90
2023-01-10T11:22:59.753Z,8.60
2023-01-10T11:27:01.335Z,10.70
2023-01-10T11:30:50.114Z,8.30
2023-01-10T11:34:34.688Z,8.40
2023-01-10T11:38:29.128Z,10.70
2023-01-10T11:41:55.996Z,10.00
2023-01-10T11:45:34.144Z,8.40
2023-01-10T11:49:20.561Z,8.40
2023-01-10T11:53:07.242Z,8.60
2023-01-10T11:56:37.010Z,10.70
2023-01-10T12:00:11.791Z,9.10
2023-01-10T12:04:12.891Z,8.80
2023-01-10T12:08:06.256Z,11.20
2023-01-10T12:12:01.174Z,10.50
2023-01-10T12:15:28.959Z,8.00
2023-01-10T12:19:07.700Z,8.30
2023-01-10T12:23:14.728Z,9.30
2023-01-10T12:26:43.245Z,7.70
2023-01-10T12:30:22.368Z,9.80
2023-01-10T12:34:22.208Z,6.80
2023-01-10T12:38:22.879Z,9.50
2023-01-10T12:42:41.922Z,10.10
2023-01-10T12:46:33.648Z,9.30
2023-01-10T12:50:37.802Z,10.80
2023-01-10T12:54:12.209Z,9.10
2023-01-10T12:57:43.695Z,7.70
2023-01-10T13:01:35.769Z,8.60
2023-01-10T13:05:04.649Z,10.00
2023-01-10T13:08:43.689Z,8.80
2023-01-10T13:12:45.179Z,10.40
2023-01-10T13:16:53.595Z,10.30
2023-01-10T13:20:23.822Z,10.10
2023-01-10T13:24:09.720Z,6.00
2023-01-10T13:27:35.688Z,7.70
2023-01-10T13:31:36.822Z,8.50
2023-01-10T13:35:20.603Z,8.90
2023-01-10T13:38:56.722Z,8.50
2023-01-10T13:42:49.741Z,12.60
2023-01-10T13:46:39.136Z,12.00
2023-01-10T13:50:22.483Z,9.40
2023-01-10T13:53:53.148Z,10.50
2023-01-10T13:57:49.448Z,8.10
2023-01-10T14:01:55.689Z,9.70
2023-01-10T14:05:46.965Z,10.60
2023-01-10T14:09:19.864Z,10.70
2023-01-10T14:13:10.623Z,7.00
2023-01-10T14:20:37.106Z,7.90
2023-01-10T14:24:27.300Z,9.10
2023-01-10T14:28:25.412Z,7.50
2023-01-10T14:31:53.427Z,6.60
2023-01-10T14:35:37.601Z,6.80
2023-01-10T14:39:25.043Z,7.80
2023-01-10T14:43:15.527Z,7.30
2023-01-10T14:47:04.315Z,6.70
2023-01-10T14:50:33.501Z,7.80
2023-01-10T14:54:16.526Z,7.40
2023-01-10T14:58:02.722Z,6.40
2023-01-10T15:01:51.231Z,7.30
2023-01-10T15:05:19.829Z,9.50
2023-01-10T15:09:15.280Z,10.00
2023-01-10T15:13:03.868Z,5.70
2023-01-10T15:16:31.058Z,8.00
2023-01-10T15:20:07.200Z,6.90
2023-01-10T15:23:47.910Z,10.20
2023-01-10T15:27:45.433Z,10.50
2023-01-10T15:31:18.341Z,11.10
2023-01-10T15:34:51.491Z,7.90
2023-01-10T15:38:46.190Z,10.80
2023-01-10T15:42:12.855Z,13.40
2023-01-10T15:45:54.123Z,13.30
2023-01-10T15:49:54.145Z,11.10
2023-01-10T15:53:18.014Z,12.50
2023-01-10T15:57:23.184Z,13.60
2023-01-10T16:00:50.200Z,14.60
2023-01-10T16:04:24.661Z,12.10
2023-01-10T16:08:04.364Z,15.10
2023-01-10T16:12:18.087Z,14.60
2023-01-10T16:15:47.967Z,11.50
2023-01-10T16:19:26.040Z,12.70
2023-01-10T16:23:25.505Z,12.10
2023-01-10T16:26:50.397Z,13.20
2023-01-10T16:30:48.039Z,16.50
2023-01-10T16:34:13.962Z,13.80
2023-01-10T16:37:59.225Z,15.00
2023-01-10T16:41:46.913Z,10.80
2023-01-10T16:45:13.084Z,13.10
2023-01-10T16:48:50.457Z,14.20
2023-01-10T16:52:26.341Z,12.80
2023-01-10T16:56:27.498Z,15.00
2023-01-10T16:59:50.828Z,13.90
2023-01-10T17:03:32.332Z,14.30
2023-01-10T17:07:06.641Z,14.10
2023-01-10T17:10:48.492Z,12.70
2023-01-10T17:14:41.882Z,15.60
2023-01-10T17:18:07.845Z,11.60
2023-01-10T17:22:02.032Z,15.80
2023-01-10T17:25:27.136Z,14.30
2023-01-10T17:29:24.030Z,11.50
2023-01-10T17:32:49.344Z,15.20
2023-01-10T17:36:29.792Z,15.80
2023-01-10T17:40:04.643Z,12.90
2023-01-10T17:43:44.485Z,11.80
2023-01-10T17:47:19.387Z,17.10
2023-01-10T17:51:00.160Z,15.70
2023-01-10T17:54:35.341Z,13.90
2023-01-10T17:58:11.396Z,14.30
2023-01-10T18:01:48.875Z,13.10
2023-01-10T18:05:27.075Z,14.40
2023-01-10T18:09:04.780Z,14.80
2023-01-10T18:12:44.338Z,11.50
2023-01-10T18:16:38.471Z,13.10
2023-01-10T18:20:05.272Z,10.70
2023-01-10T18:24:01.222Z,16.80
2023-01-10T18:27:49.574Z,17.30
2023-01-10T18:31:31.848Z,14.90
2023-01-10T18:34:55.479Z,16.30
2023-01-10T18:38:36.032Z,15.00
2023-01-10T18:42:31.886Z,14.10
2023-01-10T18:46:05.228Z,13.60
2023-01-10T18:49:33.481Z,11.30
2023-01-10T18:53:30.589Z,13.50
2023-01-10T18:56:59.657Z,11.00
2023-01-10T19:00:53.875Z,10.80
2023-01-10T19:04:18.984Z,13.10
2023-01-10T19:08:19.528Z,10.00
2023-01-10T19:11:43.433Z,14.10
2023-01-10T19:15:22.388Z,11.30
2023-01-10T19:19:07.233Z,16.10
2023-01-10T19:22:36.568Z,15.50
2023-01-10T19:26:15.692Z,18.10
2023-01-10T19:30:11.100Z,16.70
2023-01-10T19:33:58.426Z,16.10
2023-01-10T19:37:23.429Z,14.40
2023-01-10T19:41:03.564Z,11.90
2023-01-10T19:44:38.869Z,10.50
2023-01-10T19:48:37.648Z,13.10
2023-01-10T19:52:02.307Z,15.00
2023-01-10T19:55:41.614Z,15.00
2023-01-10T19:59:17.803Z,13.70
2023-01-10T20:03:14.922Z,12.90
2023-01-10T20:06:40.350Z,14.60
2023-01-10T20:10:17.248Z,12.50
2023-01-10T20:13:57.604Z,15.00
2023-01-10T20:17:33.284Z,8.90
2023-01-10T20:21:11.691Z,12.00
2023-01-10T20:25:07.021Z,12.30
2023-01-10T20:28:32.434Z,9.70
2023-01-10T20:32:28.426Z,11.10
2023-01-10T20:36:14.136Z,13.20
2023-01-10T20:39:57.678Z,12.70
2023-01-10T20:43:22.959Z,14.30
2023-01-10T20:47:22.013Z,12.70
2023-01-10T20:50:48.290Z,13.40
2023-01-10T20:54:23.957Z,15.10
2023-01-10T20:58:22.064Z,13.10
2023-01-10T21:01:47.782Z,13.30
2023-01-10T21:05:50.389Z,13.40
2023-01-10T21:09:37.072Z,13.10
2023-01-10T21:13:23.410Z,14.00
2023-01-10T21:16:49.177Z,11.10
2023-01-10T21:20:27.902Z,13.70
2023-01-10T21:24:02.829Z,15.00
2023-01-10T21:27:40.209Z,13.30
2023-01-10T21:31:38.331Z,17.10
2023-01-10T21:35:04.400Z,15.40
2023-01-10T21:38:41.811Z,17.40
2023-01-10T21:42:34.178Z,18.00
2023-01-10T21:46:00.305Z,20.50
2023-01-10T21:49:58.329Z,20.50
2023-01-10T21:53:23.958Z,18.80
2023-01-10T21:57:01.543Z,18.40
2023-01-10T22:00:39.916Z,17.40
2023-01-10T22:04:17.577Z,17.50
2023-01-10T22:07:56.089Z,17.90
2023-01-10T22:11:30.493Z,15.70
2023-01-10T22:15:29.434Z,17.90
2023-01-10T22:18:55.588Z,17.30
2023-01-10T22:22:32.253Z,16.10
2023-01-10T22:26:28.531Z,15.30
2023-01-10T22:29:54.788Z,10.90
2023-01-10T22:33:34.877Z,15.50
2023-01-10T22:37:08.017Z,16.30
2023-01-10T22:41:06.688Z,16.80
2023-01-10T22:44:49.250Z,15.30
2023-01-10T22:48:34.145Z,17.40
2023-01-10T22:51:59.041Z,19.10
2023-01-10T22:55:38.542Z,16.80
2023-01-10T22:59:34.426Z,16.70
2023-01-10T23:03:19.804Z,16.10
2023-01-10T23:06:46.456Z,15.10
2023-01-10T23:10:30.325Z,16.80
2023-01-10T23:14:00.234Z,18.00
2023-01-10T23:17:55.645Z,16.20
2023-01-10T23:21:20.904Z,15.40
2023-01-10T23:24:57.680Z,15.40
2023-01-10T23:28:53.933Z,16.30
2023-01-10T23:32:18.023Z,14.50
2023-01-10T23:35:56.186Z,13.90
2023-01-10T23:39:33.762Z,13.10
2023-01-10T23:43:30.335Z,14.00
2023-01-10T23:46:57.868Z,14.60
2023-01-10T23:50:34.173Z,14.50
2023-01-10T23:54:09.785Z,12.60
2023-01-10T23:58:11.431Z,14.40
